Tiempo atmosférico en la estación meteorológica de El Granado, Huelva (60 m.)



Fecha
DESCASC
Temp. máxima en grados centígrados (hora)
DESCASC
Temp. mínima en grados centígrados (hora)
DESCASC
Temp. media en grados centígrados
DESCASC
Racha de viento máxima en m/sg (hora)
DESCASC
Velocidad máxima media en intervalos de 10 minutos(hora)
DESCASC
Precipitaciones diarias en mm
DESCASC
Precipitaciones de 00:00 a 06:00 en mm
DESCASC
Precipitaciones de 06:00 a 12:00 en mm
DESCASC
Precipitaciones de 12:00 a 18:00 en mm
DESCASC
Precipitaciones de 18:00 a 24:00 en mm
DESCASC
23-05-2018 26.8 (14:40) 13.1 (07:30) 19.9 -- (--) -- (--) 0 0 0 0 0
22-05-2018 25.8 (18:00) 14.2 (02:30) 20 -- (--) -- (--) 0 0 0 0 0
21-05-2018 27.1 (17:10) 14.2 (06:20) 20.7 -- (--) -- (--) 0 0 0 0 0
20-05-2018 26.4 (13:40) 14.6 (00:00) 20.5 -- (--) -- (--) 1.2 0.2 0 0.8 0.2
19-05-2018 29.7 (16:00) 13.6 (00:00) 21.7 -- (--) -- (--) 0.8 0 0 0 0.8
18-05-2018 28 (16:20) 14.5 (00:00) 21.3 -- (--) -- (--) 0 0 0 0 0
17-05-2018 31.3 (17:20) 14.1 (00:00) 22.7 -- (--) -- (--) 0 0 0 0 0
16-05-2018 32.3 (17:10) 11.7 (00:00) 22 -- (--) -- (--) 0 0 0 0 0
15-05-2018 30.7 (17:20) 12.3 (00:00) 21.5 -- (--) -- (--) 0 0 0 0 0
14-05-2018 26.7 (17:30) 9.4 (00:00) 18.1 -- (--) -- (--) 0 0 0 0 0
13-05-2018 22.4 (17:40) 7.1 (00:00) 14.7 -- (--) -- (--) 0 0 0 0 0
12-05-2018 21.9 (16:30) 12.5 (00:00) 17.2 -- (--) -- (--) 0 0 0 0 0
11-05-2018 25.8 (19:20) 10.9 (07:30) 18.3 -- (--) -- (--) 0 0 0 0 0
10-05-2018 26.3 (17:30) 12 (00:00) 19.1 -- (--) -- (--) 0 0 0 0 0
09-05-2018 19.4 (13:40) 13 (00:00) 16.2 -- (--) -- (--) 0 0 0 0 0
08-05-2018 29 (17:10) 14.8 (00:00) 21.9 -- (--) -- (--) 1 0 0.8 0.2 0
07-05-2018 28.5 (16:20) 13 (00:00) 20.8 -- (--) -- (--) 0 0 0 0 0
06-05-2018 29.6 (16:50) 11.2 (00:00) 20.4 -- (--) -- (--) 2 0 0 1.6 0.4
05-05-2018 29.7 (17:50) 11.5 (00:00) 20.6 -- (--) -- (--) 0 0 0 0 0
04-05-2018 27.8 (16:20) 9.5 (00:00) 18.6 -- (--) -- (--) 0 0 0 0 0
03-05-2018 24.4 (17:10) 8.5 (00:00) 16.4 -- (--) -- (--) 0 0 0 0 0
02-05-2018 22.8 (17:40) 6.4 (00:00) 14.6 -- (--) -- (--) 0 0 0 0 0
01-05-2018 18.4 (14:00) 6.9 (07:20) 12.6 -- (--) -- (--) 0 0 0 0 0
30-04-2018 20.2 (18:40) 5.5 (00:00) 12.9 -- (--) -- (--) 0 0 0 0 0
29-04-2018 19.3 (17:20) 7.8 (00:00) 13.5 -- (--) -- (--) 0.4 0 0 0.4 0
28-04-2018 18.4 (14:10) 8.2 (00:00) 13.3 -- (--) -- (--) 0.4 0 0 0 0.4

Gráficas

Temp. máximas Temp. mínimas Temp. medias Precipitaciones Rachas de viento máximas Velocidades máximas media en intervalos de 10 minutos

Datos horarios

Fecha y hora oficial Temperatura (ºC) Velocidad del viento (km/h) Dirección del viento Racha (km/h) Dirección de racha Precipitación (mm) Presión (hPa) Tendencia (hPa) Humedad (%)
2018-05-27 23:00:00 -- -- -- -- -- -- -- -- --
2018-05-27 22:00:00 -- -- -- -- -- -- -- -- --
2018-05-27 21:00:00 -- -- -- -- -- -- -- -- --
2018-05-27 20:00:00 -- -- -- -- -- -- -- -- --
2018-05-27 19:00:00 -- -- -- -- -- -- -- -- --
2018-05-27 18:00:00 -- -- -- -- -- -- -- -- --
2018-05-27 17:00:00 -- -- -- -- -- -- -- -- --
2018-05-27 16:00:00 -- -- -- -- -- -- -- -- --
2018-05-27 15:00:00 22.7 -- -- -- -- 0 -- -- 60
2018-05-27 14:00:00 21.7 -- -- -- -- 0 -- -- 63
2018-05-27 13:00:00 21.2 -- -- -- -- 0 -- -- 70
2018-05-27 12:00:00 19.4 -- -- -- -- 0 -- -- 76
2018-05-27 11:00:00 18.4 -- -- -- -- 0 -- -- 81
2018-05-27 10:00:00 16.9 -- -- -- -- 0 -- -- 87
2018-05-27 09:00:00 15.7 -- -- -- -- 0 -- -- 91
2018-05-27 08:00:00 14.9 -- -- -- -- 0 -- -- 94
2018-05-27 07:00:00 14.7 -- -- -- -- 0 -- -- 92
2018-05-27 06:00:00 15.1 -- -- -- -- 0 -- -- 89
2018-05-27 05:00:00 15.6 -- -- -- -- 0 -- -- 86
2018-05-27 04:00:00 15.6 -- -- -- -- 0 -- -- 85
2018-05-27 03:00:00 15.7 -- -- -- -- 0 -- -- 86
2018-05-27 02:00:00 16 -- -- -- -- 0 -- -- 81
2018-05-27 01:00:00 16.9 -- -- -- -- 0 -- -- 80
2018-05-27 00:00:00 17.9 -- -- -- -- 0 -- -- 77
2018-05-26 23:00:00 19.1 -- -- -- -- 0 -- -- 74
2018-05-26 22:00:00 19.8 -- -- -- -- 0 -- -- 69
2018-05-26 21:00:00 21.1 -- -- -- -- 0 -- -- 60
2018-05-26 20:00:00 21.7 -- -- -- -- 0 -- -- 60
2018-05-26 19:00:00 23.1 -- -- -- -- 0 -- -- 55
2018-05-26 18:00:00 24.7 -- -- -- -- 0 -- -- 49
2018-05-26 17:00:00 24.7 -- -- -- -- 0 -- -- 49
2018-05-26 16:00:00 24.7 -- -- -- -- 0 -- -- 48
2018-05-26 15:00:00 24.6 -- -- -- -- 0 -- -- 50
2018-05-26 14:00:00 24.6 -- -- -- -- 0 -- -- 51
2018-05-26 13:00:00 22.6 -- -- -- -- 0 -- -- 55
2018-05-26 12:00:00 20.6 -- -- -- -- 0 -- -- 66
2018-05-26 11:00:00 18.4 -- -- -- -- 0 -- -- 83
2018-05-26 10:00:00 15.5 -- -- -- -- 0 -- -- 97
2018-05-26 09:00:00 14.8 -- -- -- -- 0 -- -- 98
2018-05-26 08:00:00 14.5 -- -- -- -- 0 -- -- 98
2018-05-26 07:00:00 14.3 -- -- -- -- 0 -- -- 98
2018-05-26 06:00:00 14 -- -- -- -- 0 -- -- 98
2018-05-26 05:00:00 13.9 -- -- -- -- 0 -- -- 97
2018-05-26 04:00:00 14.2 -- -- -- -- 0 -- -- 96
2018-05-26 03:00:00 14.9 -- -- -- -- 0 -- -- 94
2018-05-26 02:00:00 15.6 -- -- -- -- 0 -- -- 90
2018-05-26 01:00:00 16.2 -- -- -- -- 0 -- -- 89
2018-05-26 00:00:00 16.8 -- -- -- -- 0 -- -- 85
2018-05-25 23:00:00 17.5 -- -- -- -- 0 -- -- 81
2018-05-25 22:00:00 18.1 -- -- -- -- 0.2 -- -- 75
2018-05-25 21:00:00 18.7 -- -- -- -- 0 -- -- 72
2018-05-25 20:00:00 19.5 -- -- -- -- 0 -- -- 66
2018-05-25 19:00:00 20.3 -- -- -- -- 0 -- -- 62
2018-05-25 18:00:00 20 -- -- -- -- 0 -- -- 63
2018-05-25 17:00:00 18.9 -- -- -- -- 0 -- -- 74
2018-05-25 16:00:00 18.4 -- -- -- -- 0.6 -- -- 79
2018-05-25 15:00:00 21 -- -- -- -- 0 -- -- 65
2018-05-25 14:00:00 18.9 -- -- -- -- 0 -- -- 74
2018-05-25 13:00:00 17.6 -- -- -- -- 0 -- -- 82
2018-05-25 12:00:00 18.8 -- -- -- -- 0 -- -- 65
2018-05-25 11:00:00 18.6 -- -- -- -- 0 -- -- 74
2018-05-25 10:00:00 15.7 -- -- -- -- 0 -- -- 93
2018-05-25 09:00:00 13.3 -- -- -- -- 0 -- -- 99
2018-05-25 08:00:00 12.4 -- -- -- -- 0 -- -- 98
2018-05-25 07:00:00 12.3 -- -- -- -- 0 -- -- 97
2018-05-25 06:00:00 12.4 -- -- -- -- 0 -- -- 96
2018-05-25 05:00:00 12.8 -- -- -- -- 0 -- -- 94
2018-05-25 04:00:00 13.3 -- -- -- -- 0 -- -- 94
2018-05-25 03:00:00 13.9 -- -- -- -- 0 -- -- 90
2018-05-25 02:00:00 14.7 -- -- -- -- 0 -- -- 85
2018-05-25 01:00:00 15.3 -- -- -- -- 0 -- -- 81
2018-05-25 00:00:00 15.9 -- -- -- -- 0 -- -- 78
2018-05-24 23:00:00 16.8 -- -- -- -- 0 -- -- 72
2018-05-24 22:00:00 17.7 -- -- -- -- 0 -- -- 63
2018-05-24 21:00:00 18.9 -- -- -- -- 0 -- -- 59
2018-05-24 20:00:00 20.5 -- -- -- -- 0 -- -- 54
2018-05-24 19:00:00 20.4 -- -- -- -- 0 -- -- 61
2018-05-24 18:00:00 22.6 -- -- -- -- 0 -- -- 53
2018-05-24 17:00:00 22.4 -- -- -- -- 0 -- -- 57
2018-05-24 16:00:00 20.6 -- -- -- -- 0 -- -- 75
2018-05-24 15:00:00 18.8 -- -- -- -- 0.2 -- -- 87
2018-05-24 14:00:00 16.4 -- -- -- -- 0 -- -- 96
2018-05-24 13:00:00 15.4 -- -- -- -- 1.8 -- -- 95
2018-05-24 12:00:00 15.2 -- -- -- -- 1.2 -- -- 97
2018-05-24 11:00:00 14.8 -- -- -- -- 2.4 -- -- 96
2018-05-24 10:00:00 14.6 -- -- -- -- 0.2 -- -- 95
2018-05-24 09:00:00 14.4 -- -- -- -- 0.2 -- -- 94
2018-05-24 08:00:00 14.4 -- -- -- -- 0.6 -- -- 93
2018-05-24 07:00:00 15.1 -- -- -- -- 0.2 -- -- 86
2018-05-24 06:00:00 15 -- -- -- -- 0 -- -- 85
2018-05-24 05:00:00 15 -- -- -- -- 0 -- -- 82
2018-05-24 04:00:00 15.7 -- -- -- -- 0 -- -- 81
2018-05-24 03:00:00 16.1 -- -- -- -- 0 -- -- 79
2018-05-24 02:00:00 16.6 -- -- -- -- 0 -- -- 77
2018-05-24 01:00:00 17.4 -- -- -- -- 0 -- -- 74
2018-05-24 00:00:00 18.5 -- -- -- -- 0 -- -- 73
2018-05-23 23:00:00 19.7 -- -- -- -- 0 -- -- 71
2018-05-23 22:00:00 21.6 -- -- -- -- 0 -- -- 63
2018-05-23 21:00:00 23.3 -- -- -- -- 0 -- -- 45
2018-05-23 20:00:00 24.3 -- -- -- -- 0 -- -- 42
2018-05-23 19:00:00 24.2 -- -- -- -- 0 -- -- 42
2018-05-23 18:00:00 24.3 -- -- -- -- 0 -- -- 44
2018-05-23 17:00:00 25.6 -- -- -- -- 0 -- -- 41
2018-05-23 16:00:00 24.4 -- -- -- -- 0 -- -- 44
2018-05-23 15:00:00 25.7 -- -- -- -- 0 -- -- 41
2018-05-23 14:00:00 26.2 -- -- -- -- 0 -- -- 39
2018-05-23 13:00:00 24.8 -- -- -- -- 0 -- -- 42
2018-05-23 12:00:00 21.7 -- -- -- -- 0 -- -- 62
2018-05-23 11:00:00 18.1 -- -- -- -- 0 -- -- 76
2018-05-23 10:00:00 16.4 -- -- -- -- 0 -- -- 83
2018-05-23 09:00:00 14.3 -- -- -- -- 0 -- -- 91
2018-05-23 08:00:00 13.2 -- -- -- -- 0 -- -- 93
2018-05-23 07:00:00 13.4 -- -- -- -- 0 -- -- 93
2018-05-23 06:00:00 13.8 -- -- -- -- 0 -- -- 90
2018-05-23 05:00:00 14.4 -- -- -- -- 0 -- -- 89
2018-05-23 04:00:00 14.8 -- -- -- -- 0 -- -- 88
2018-05-23 03:00:00 15.6 -- -- -- -- 0 -- -- 85
2018-05-23 02:00:00 16.1 -- -- -- -- 0 -- -- 81
2018-05-23 01:00:00 16.9 -- -- -- -- 0 -- -- 80
2018-05-23 00:00:00 17.7 -- -- -- -- 0 -- -- 77
2018-05-22 23:00:00 18.6 -- -- -- -- 0 -- -- 71
2018-05-22 22:00:00 19.8 -- -- -- -- 0 -- -- 67
2018-05-22 21:00:00 22 -- -- -- -- 0 -- -- 59
2018-05-22 20:00:00 24.6 -- -- -- -- 0 -- -- 52
2018-05-22 19:00:00 25.1 -- -- -- -- 0 -- -- 48
2018-05-22 18:00:00 25.8 -- -- -- -- 0 -- -- 45
2018-05-22 17:00:00 25.4 -- -- -- -- 0 -- -- 46
2018-05-22 16:00:00 24.9 -- -- -- -- 0 -- -- 47
2018-05-22 15:00:00 24.2 -- -- -- -- 0 -- -- 49
2018-05-22 14:00:00 22.9 -- -- -- -- 0 -- -- 51
2018-05-22 13:00:00 21.1 -- -- -- -- 0 -- -- 57
2018-05-22 12:00:00 19.6 -- -- -- -- 0 -- -- 63
2018-05-22 11:00:00 17.6 -- -- -- -- 0 -- -- 76
2018-05-22 10:00:00 17.3 -- -- -- -- 0 -- -- 80
2018-05-22 09:00:00 15.7 -- -- -- -- 0 -- -- 86
2018-05-22 08:00:00 14.8 -- -- -- -- 0 -- -- 87
2018-05-22 07:00:00 15 -- -- -- -- 0 -- -- 86
2018-05-22 06:00:00 14.9 -- -- -- -- 0 -- -- 86
2018-05-22 05:00:00 14.7 -- -- -- -- 0 -- -- 86
2018-05-22 04:00:00 14.7 -- -- -- -- 0 -- -- 86
2018-05-22 03:00:00 14.4 -- -- -- -- 0 -- -- 86
2018-05-22 02:00:00 14.3 -- -- -- -- 0 -- -- 86
2018-05-22 01:00:00 14.8 -- -- -- -- 0 -- -- 83
2018-05-22 00:00:00 15.9 -- -- -- -- 0 -- -- 80
2018-05-21 23:00:00 18.2 -- -- -- -- 0 -- -- 72
2018-05-21 22:00:00 20.3 -- -- -- -- 0 -- -- 73
2018-05-21 21:00:00 21.4 -- -- -- -- 0 -- -- 61
2018-05-21 20:00:00 23.5 -- -- -- -- 0 -- -- 53
2018-05-21 19:00:00 23.5 -- -- -- -- 0 -- -- 59
2018-05-21 18:00:00 26.2 -- -- -- -- 0 -- -- 50
2018-05-21 17:00:00 25.9 -- -- -- -- 0 -- -- 48
2018-05-21 16:00:00 25 -- -- -- -- 0 -- -- 50
2018-05-21 15:00:00 22.1 -- -- -- -- 0 -- -- 62
2018-05-21 14:00:00 20.6 -- -- -- -- 0 -- -- 68
2018-05-21 13:00:00 18.6 -- -- -- -- 0 -- -- 76
2018-05-21 12:00:00 16.7 -- -- -- -- 0 -- -- 81
2018-05-21 11:00:00 15.5 -- -- -- -- 0 -- -- 89
2018-05-21 10:00:00 14.9 -- -- -- -- 0 -- -- 92
2018-05-21 09:00:00 14.6 -- -- -- -- 0 -- -- 93
2018-05-21 08:00:00 14.5 -- -- -- -- 0 -- -- 94
2018-05-21 07:00:00 14.3 -- -- -- -- 0 -- -- 95
2018-05-21 06:00:00 14.3 -- -- -- -- 0 -- -- 94
2018-05-21 05:00:00 14.8 -- -- -- -- 0 -- -- 93
2018-05-21 04:00:00 15.5 -- -- -- -- 0 -- -- 91
2018-05-21 03:00:00 15.8 -- -- -- -- 0 -- -- 91
2018-05-21 02:00:00 16 -- -- -- -- 0 -- -- 90
2018-05-21 01:00:00 16.8 -- -- -- -- 0 -- -- 92
2018-05-21 00:00:00 17.2 -- -- -- -- 0 -- -- 89
2018-05-20 23:00:00 18 -- -- -- -- 0 -- -- 85
2018-05-20 22:00:00 19.7 -- -- -- -- 0.2 -- -- 75
2018-05-20 21:00:00 21.8 -- -- -- -- 0 -- -- 54
2018-05-20 20:00:00 23.7 -- -- -- -- 0 -- -- 56
2018-05-20 19:00:00 21.6 -- -- -- -- 0 -- -- 69
2018-05-20 18:00:00 18.6 -- -- -- -- 0 -- -- 78
2018-05-20 17:00:00 17.3 -- -- -- -- 0.4 -- -- 84
2018-05-20 16:00:00 17.5 -- -- -- -- 0.4 -- -- 78
2018-05-20 15:00:00 21.1 -- -- -- -- 0 -- -- 70
2018-05-20 14:00:00 26.4 -- -- -- -- 0 -- -- 49
2018-05-20 13:00:00 25.1 -- -- -- -- 0 -- -- 51
2018-05-20 12:00:00 22.5 -- -- -- -- 0 -- -- 67
2018-05-20 11:00:00 19.9 -- -- -- -- 0 -- -- 79
2018-05-20 10:00:00 16.9 -- -- -- -- 0 -- -- 90
2018-05-20 09:00:00 15 -- -- -- -- 0 -- -- 97
2018-05-20 08:00:00 14.7 -- -- -- -- 0 -- -- 97
2018-05-20 07:00:00 14.6 -- -- -- -- 0 -- -- 96
2018-05-20 06:00:00 14.6 -- -- -- -- 0 -- -- 95
2018-05-20 05:00:00 14.9 -- -- -- -- 0 -- -- 95
2018-05-20 04:00:00 15.5 -- -- -- -- 0.2 -- -- 94
2018-05-20 03:00:00 15.9 -- -- -- -- 0 -- -- 94
2018-05-20 02:00:00 16.4 -- -- -- -- 0 -- -- 93
2018-05-20 01:00:00 16.5 -- -- -- -- 0 -- -- 93
2018-05-20 00:00:00 16.9 -- -- -- -- 0 -- -- 86
2018-05-19 23:00:00 18.3 -- -- -- -- 0.8 -- -- 81
2018-05-19 22:00:00 21.1 -- -- -- -- 0 -- -- 65
2018-05-19 21:00:00 23.7 -- -- -- -- 0 -- -- 52
2018-05-19 20:00:00 26.8 -- -- -- -- 0 -- -- 33
2018-05-19 19:00:00 27.8 -- -- -- -- 0 -- -- 30
2018-05-19 18:00:00 27.6 -- -- -- -- 0 -- -- 33
2018-05-19 17:00:00 29.5 -- -- -- -- 0 -- -- 29
2018-05-19 16:00:00 29.7 -- -- -- -- 0 -- -- 29
2018-05-19 15:00:00 27.7 -- -- -- -- 0 -- -- 33
2018-05-19 14:00:00 26.7 -- -- -- -- 0 -- -- 36
2018-05-19 13:00:00 25.5 -- -- -- -- 0 -- -- 41
2018-05-19 12:00:00 23.8 -- -- -- -- 0 -- -- 46
2018-05-19 11:00:00 20.7 -- -- -- -- 0 -- -- 68
2018-05-19 10:00:00 17.4 -- -- -- -- 0 -- -- 80
2018-05-19 09:00:00 14.5 -- -- -- -- 0 -- -- 91
2018-05-19 08:00:00 13.6 -- -- -- -- 0 -- -- 90
2018-05-19 07:00:00 14 -- -- -- -- 0 -- -- 88
2018-05-19 06:00:00 14.6 -- -- -- -- 0 -- -- 86
2018-05-19 05:00:00 15.2 -- -- -- -- 0 -- -- 83
2018-05-19 04:00:00 16.1 -- -- -- -- 0 -- -- 80
2018-05-19 03:00:00 17.3 -- -- -- -- 0 -- -- 76
2018-05-19 02:00:00 18.4 -- -- -- -- 0 -- -- 73
2018-05-19 01:00:00 19 -- -- -- -- 0 -- -- 70
2018-05-19 00:00:00 19.6 -- -- -- -- 0 -- -- 60
2018-05-18 23:00:00 20.5 -- -- -- -- 0 -- -- 61
2018-05-18 22:00:00 21.4 -- -- -- -- 0 -- -- 55
2018-05-18 21:00:00 22.9 -- -- -- -- 0 -- -- 48
2018-05-18 20:00:00 24.7 -- -- -- -- 0 -- -- 39
2018-05-18 19:00:00 26.6 -- -- -- -- 0 -- -- 38
2018-05-18 18:00:00 27 -- -- -- -- 0 -- -- 37
2018-05-18 17:00:00 28 -- -- -- -- 0 -- -- 37
2018-05-18 16:00:00 27.6 -- -- -- -- 0 -- -- 37
2018-05-18 15:00:00 27 -- -- -- -- 0 -- -- 38
2018-05-18 14:00:00 26.4 -- -- -- -- 0 -- -- 40
2018-05-18 13:00:00 25.1 -- -- -- -- 0 -- -- 43
2018-05-18 12:00:00 23.8 -- -- -- -- 0 -- -- 45
2018-05-18 11:00:00 21.7 -- -- -- -- 0 -- -- 57
2018-05-18 10:00:00 18.5 -- -- -- -- 0 -- -- 73
2018-05-18 09:00:00 15.2 -- -- -- -- 0 -- -- 91
2018-05-18 08:00:00 14.7 -- -- -- -- 0 -- -- 92
2018-05-18 07:00:00 14.6 -- -- -- -- 0 -- -- 90
2018-05-18 06:00:00 14.9 -- -- -- -- 0 -- -- 90
2018-05-18 05:00:00 15.3 -- -- -- -- 0 -- -- 87
2018-05-18 04:00:00 16 -- -- -- -- 0 -- -- 84
2018-05-18 03:00:00 16.6 -- -- -- -- 0 -- -- 79
2018-05-18 02:00:00 17.5 -- -- -- -- 0 -- -- 77
2018-05-18 01:00:00 18.3 -- -- -- -- 0 -- -- 71
2018-05-18 00:00:00 19 -- -- -- -- 0 -- -- 67
2018-05-17 23:00:00 20 -- -- -- -- 0 -- -- 61
2018-05-17 22:00:00 21.1 -- -- -- -- 0 -- -- 58
2018-05-17 21:00:00 24.3 -- -- -- -- 0 -- -- 47
2018-05-17 20:00:00 28.1 -- -- -- -- 0 -- -- 36
2018-05-17 19:00:00 30.5 -- -- -- -- 0 -- -- 31
2018-05-17 18:00:00 31 -- -- -- -- 0 -- -- 27
2018-05-17 17:00:00 30.6 -- -- -- -- 0 -- -- 27
2018-05-17 16:00:00 29.9 -- -- -- -- 0 -- -- 29
2018-05-17 15:00:00 29.3 -- -- -- -- 0 -- -- 29
2018-05-17 14:00:00 27.9 -- -- -- -- 0 -- -- 32
2018-05-17 13:00:00 26.3 -- -- -- -- 0 -- -- 33
2018-05-17 12:00:00 24.6 -- -- -- -- 0 -- -- 39
2018-05-17 11:00:00 22.4 -- -- -- -- 0 -- -- 45
2018-05-17 10:00:00 19.2 -- -- -- -- 0 -- -- 60
2018-05-17 09:00:00 15 -- -- -- -- 0 -- -- 81
2018-05-17 08:00:00 14.1 -- -- -- -- 0 -- -- 82
2018-05-17 07:00:00 14.7 -- -- -- -- 0 -- -- 80
2018-05-17 06:00:00 15.7 -- -- -- -- 0 -- -- 73
2018-05-17 05:00:00 16.7 -- -- -- -- 0 -- -- 66
2018-05-17 04:00:00 17.4 -- -- -- -- 0 -- -- 62
2018-05-17 03:00:00 17.6 -- -- -- -- 0 -- -- 58
2018-05-17 02:00:00 18.5 -- -- -- -- 0 -- -- 55
2018-05-17 01:00:00 19.4 -- -- -- -- 0 -- -- 52
2018-05-17 00:00:00 20.2 -- -- -- -- 0 -- -- 47
2018-05-16 23:00:00 21 -- -- -- -- 0 -- -- 43
2018-05-16 22:00:00 23.4 -- -- -- -- 0 -- -- 39
2018-05-16 21:00:00 28.5 -- -- -- -- 0 -- -- 30
2018-05-16 20:00:00 30.9 -- -- -- -- 0 -- -- 27
2018-05-16 19:00:00 31.4 -- -- -- -- 0 -- -- 27
2018-05-16 18:00:00 31.8 -- -- -- -- 0 -- -- 27
2018-05-16 17:00:00 32.1 -- -- -- -- 0 -- -- 29
2018-05-16 16:00:00 30.9 -- -- -- -- 0 -- -- 26
2018-05-16 15:00:00 29.8 -- -- -- -- 0 -- -- 28
2018-05-16 14:00:00 29.2 -- -- -- -- 0 -- -- 27
2018-05-16 13:00:00 26.6 -- -- -- -- 0 -- -- 38
2018-05-16 12:00:00 24.2 -- -- -- -- 0 -- -- 42
2018-05-16 11:00:00 20.6 -- -- -- -- 0 -- -- 52
2018-05-16 10:00:00 16.9 -- -- -- -- 0 -- -- 64
2018-05-16 09:00:00 12.2 -- -- -- -- 0 -- -- 84
2018-05-16 08:00:00 11.8 -- -- -- -- 0 -- -- 84
2018-05-16 07:00:00 12.3 -- -- -- -- 0 -- -- 79
2018-05-16 06:00:00 13 -- -- -- -- 0 -- -- 77
2018-05-16 05:00:00 13.9 -- -- -- -- 0 -- -- 71
2018-05-16 04:00:00 15.4 -- -- -- -- 0 -- -- 64
2018-05-16 03:00:00 16.5 -- -- -- -- 0 -- -- 56
2018-05-16 02:00:00 18.1 -- -- -- -- 0 -- -- 52
2018-05-16 01:00:00 20.6 -- -- -- -- 0 -- -- 46
2018-05-16 00:00:00 21.4 -- -- -- -- 0 -- -- 45
2018-05-15 23:00:00 23.1 -- -- -- -- 0 -- -- 38
2018-05-15 22:00:00 24.7 -- -- -- -- 0 -- -- 32
2018-05-15 21:00:00 26.8 -- -- -- -- 0 -- -- 28
2018-05-15 20:00:00 29 -- -- -- -- 0 -- -- 25
2018-05-15 19:00:00 29.3 -- -- -- -- 0 -- -- 26
2018-05-15 18:00:00 29.5 -- -- -- -- 0 -- -- 26
2018-05-15 17:00:00 29.2 -- -- -- -- 0 -- -- 26
2018-05-15 16:00:00 28.1 -- -- -- -- 0 -- -- 25
2018-05-15 15:00:00 27.6 -- -- -- -- 0 -- -- 26
2018-05-15 14:00:00 26.6 -- -- -- -- 0 -- -- 27
2018-05-15 13:00:00 25.5 -- -- -- -- 0 -- -- 34
2018-05-15 12:00:00 23.3 -- -- -- -- 0 -- -- 43
2018-05-15 11:00:00 20.3 -- -- -- -- 0 -- -- 61
2018-05-15 10:00:00 16.7 -- -- -- -- 0 -- -- 76
2018-05-15 09:00:00 13.3 -- -- -- -- 0 -- -- 90
2018-05-15 08:00:00 12.4 -- -- -- -- 0 -- -- 92
2018-05-15 07:00:00 12.7 -- -- -- -- 0 -- -- 91
2018-05-15 06:00:00 13.2 -- -- -- -- 0 -- -- 90
2018-05-15 05:00:00 13.9 -- -- -- -- 0 -- -- 87
2018-05-15 04:00:00 14.8 -- -- -- -- 0 -- -- 83
2018-05-15 03:00:00 15.8 -- -- -- -- 0 -- -- 78
2018-05-15 02:00:00 17.2 -- -- -- -- 0 -- -- 72
2018-05-15 01:00:00 18.6 -- -- -- -- 0 -- -- 66
2018-05-15 00:00:00 19.9 -- -- -- -- 0 -- -- 61
2018-05-14 23:00:00 21 -- -- -- -- 0 -- -- 55
2018-05-14 22:00:00 22.4 -- -- -- -- 0 -- -- 46
2018-05-14 21:00:00 23.8 -- -- -- -- 0 -- -- 40
2018-05-14 20:00:00 25.4 -- -- -- -- 0 -- -- 36
2018-05-14 19:00:00 26.2 -- -- -- -- 0 -- -- 34
2018-05-14 18:00:00 26 -- -- -- -- 0 -- -- 36
2018-05-14 17:00:00 26.1 -- -- -- -- 0 -- -- 37
2018-05-14 16:00:00 25.6 -- -- -- -- 0 -- -- 37
2018-05-14 15:00:00 24.8 -- -- -- -- 0 -- -- 39
2018-05-14 14:00:00 22.9 -- -- -- -- 0 -- -- 42
2018-05-14 13:00:00 21.3 -- -- -- -- 0 -- -- 47
2018-05-14 12:00:00 19.7 -- -- -- -- 0 -- -- 50
2018-05-14 11:00:00 17.2 -- -- -- -- 0 -- -- 55
2018-05-14 10:00:00 14.5 -- -- -- -- 0 -- -- 65
2018-05-14 09:00:00 11.4 -- -- -- -- 0 -- -- 79
2018-05-14 08:00:00 9.4 -- -- -- -- 0 -- -- 87
2018-05-14 07:00:00 9.8 -- -- -- -- 0 -- -- 85
2018-05-14 06:00:00 10.3 -- -- -- -- 0 -- -- 80
2018-05-14 05:00:00 11.1 -- -- -- -- 0 -- -- 76
2018-05-14 04:00:00 12 -- -- -- -- 0 -- -- 71
2018-05-14 03:00:00 13 -- -- -- -- 0 -- -- 69
2018-05-14 02:00:00 14.2 -- -- -- -- 0 -- -- 63
2018-05-14 01:00:00 15.4 -- -- -- -- 0 -- -- 58
2018-05-11 20:00:00 -- -- -- -- -- -- -- -- --
2018-05-11 19:00:00 25 -- -- -- -- 0 -- -- 46
2018-05-11 18:00:00 24.6 -- -- -- -- 0 -- -- 48
2018-05-11 17:00:00 23.8 -- -- -- -- 0 -- -- 50
2018-05-11 16:00:00 24.6 -- -- -- -- 0 -- -- 49
2018-05-11 15:00:00 22.5 -- -- -- -- 0 -- -- 55
2018-05-11 14:00:00 21.2 -- -- -- -- 0 -- -- 58
2018-05-11 13:00:00 18.2 -- -- -- -- 0 -- -- 69
2018-05-11 12:00:00 15.7 -- -- -- -- 0 -- -- 79
2018-05-11 11:00:00 14.7 -- -- -- -- 0 -- -- 83
2018-05-11 10:00:00 13.4 -- -- -- -- 0 -- -- 89
2018-05-11 09:00:00 12 -- -- -- -- 0 -- -- 95
2018-05-11 08:00:00 11.2 -- -- -- -- 0 -- -- 95
2018-05-11 07:00:00 11 -- -- -- -- 0 -- -- 95
2018-05-11 06:00:00 11 -- -- -- -- 0 -- -- 94
2018-05-11 05:00:00 11.5 -- -- -- -- 0 -- -- 92
2018-05-11 04:00:00 12.1 -- -- -- -- 0 -- -- 92
2018-05-11 03:00:00 12.7 -- -- -- -- 0 -- -- 89
2018-05-11 02:00:00 13.8 -- -- -- -- 0 -- -- 84
2018-05-11 01:00:00 14.7 -- -- -- -- 0 -- -- 80
2018-05-11 00:00:00 15.6 -- -- -- -- 0 -- -- 74
2018-05-10 23:00:00 16.3 -- -- -- -- 0 -- -- 69
2018-05-10 22:00:00 17.3 -- -- -- -- 0 -- -- 66
2018-05-10 21:00:00 19.2 -- -- -- -- 0 -- -- 61
2018-05-10 20:00:00 21 -- -- -- -- 0 -- -- 55
2018-05-10 19:00:00 22 -- -- -- -- 0 -- -- 53
2018-05-10 18:00:00 24.7 -- -- -- -- 0 -- -- 47
2018-05-10 17:00:00 25.2 -- -- -- -- 0 -- -- 46
2018-05-10 16:00:00 24.4 -- -- -- -- 0 -- -- 46
2018-05-10 15:00:00 22.9 -- -- -- -- 0 -- -- 51
2018-05-10 14:00:00 21.3 -- -- -- -- 0 -- -- 52
2018-05-10 13:00:00 20.5 -- -- -- -- 0 -- -- 57
2018-05-10 12:00:00 17.9 -- -- -- -- 0 -- -- 66
2018-05-10 11:00:00 15.8 -- -- -- -- 0 -- -- 70
2018-05-10 10:00:00 13.5 -- -- -- -- 0 -- -- 78
2018-05-10 09:00:00 12.8 -- -- -- -- 0 -- -- 79
2018-05-10 08:00:00 12.5 -- -- -- -- 0 -- -- 84
2018-05-10 07:00:00 12.3 -- -- -- -- 0 -- -- 83
2018-05-10 06:00:00 12.2 -- -- -- -- 0 -- -- 84
2018-05-10 05:00:00 12.1 -- -- -- -- 0 -- -- 85
2018-05-10 04:00:00 12.4 -- -- -- -- 0 -- -- 83
2018-05-10 03:00:00 12.7 -- -- -- -- 0 -- -- 81
2018-05-10 02:00:00 13.5 -- -- -- -- 0 -- -- 79
2018-05-10 01:00:00 14.4 -- -- -- -- 0 -- -- 77
2018-05-10 00:00:00 14.9 -- -- -- -- 0 -- -- 81
2018-05-09 23:00:00 16 -- -- -- -- 0 -- -- 79
2018-05-09 22:00:00 17 -- -- -- -- 0 -- -- 74
2018-05-09 21:00:00 17.6 -- -- -- -- 0 -- -- 71
2018-05-09 20:00:00 18.4 -- -- -- -- 0 -- -- 70
2018-05-09 19:00:00 18.7 -- -- -- -- 0 -- -- 70
2018-05-09 18:00:00 18.9 -- -- -- -- 0 -- -- 69
2018-05-09 17:00:00 18.8 -- -- -- -- 0 -- -- 69
2018-05-09 16:00:00 18.7 -- -- -- -- 0 -- -- 72
2018-05-09 15:00:00 18.5 -- -- -- -- 0 -- -- 72
2018-05-09 14:00:00 19 -- -- -- -- 0 -- -- 71
2018-05-09 13:00:00 18.5 -- -- -- -- 0 -- -- 69
2018-05-09 12:00:00 17.3 -- -- -- -- 0 -- -- 76
2018-05-09 11:00:00 16.4 -- -- -- -- 0 -- -- 79
2018-05-09 10:00:00 15.5 -- -- -- -- 0 -- -- 82
2018-05-09 09:00:00 14.9 -- -- -- -- 0 -- -- 83
2018-05-09 08:00:00 14.4 -- -- -- -- 0 -- -- 84
2018-05-09 07:00:00 14.1 -- -- -- -- 0 -- -- 85
2018-05-09 06:00:00 14 -- -- -- -- 0 -- -- 86
2018-05-09 05:00:00 13.3 -- -- -- -- 0 -- -- 87
2018-05-09 04:00:00 13.3 -- -- -- -- 0 -- -- 85
2018-05-09 03:00:00 14.2 -- -- -- -- 0 -- -- 81
2018-05-09 02:00:00 15.5 -- -- -- -- 0 -- -- 77
2018-05-09 01:00:00 17.1 -- -- -- -- 0 -- -- 77
2018-05-09 00:00:00 18.7 -- -- -- -- 0 -- -- 73
2018-05-08 23:00:00 20.5 -- -- -- -- 0 -- -- 67
2018-05-08 22:00:00 22.1 -- -- -- -- 0 -- -- 62
2018-05-08 21:00:00 24.3 -- -- -- -- 0 -- -- 52
2018-05-08 20:00:00 26.1 -- -- -- -- 0 -- -- 48
2018-05-08 19:00:00 26.7 -- -- -- -- 0 -- -- 41
2018-05-08 18:00:00 27.3 -- -- -- -- 0 -- -- 46
2018-05-08 17:00:00 28.7 -- -- -- -- 0 -- -- 48
2018-05-08 16:00:00 26.4 -- -- -- -- 0.2 -- -- 56
2018-05-08 15:00:00 21.9 -- -- -- -- 0 -- -- 66
2018-05-08 14:00:00 24.3 -- -- -- -- 0 -- -- 60
2018-05-08 13:00:00 22.3 -- -- -- -- 0 -- -- 65
2018-05-08 12:00:00 18.7 -- -- -- -- 0 -- -- 86
2018-05-08 11:00:00 16.3 -- -- -- -- 0 -- -- 94
2018-05-08 10:00:00 15.2 -- -- -- -- 0.4 -- -- 96
2018-05-08 09:00:00 14.9 -- -- -- -- 0.2 -- -- 94
2018-05-08 08:00:00 15 -- -- -- -- 0.2 -- -- 93
2018-05-08 07:00:00 15.8 -- -- -- -- 0 -- -- 85
2018-05-08 06:00:00 16.2 -- -- -- -- 0 -- -- 83
2018-05-08 05:00:00 16.2 -- -- -- -- 0 -- -- 82
2018-05-08 04:00:00 15.9 -- -- -- -- 0 -- -- 85
2018-05-08 03:00:00 16 -- -- -- -- 0 -- -- 85
2018-05-08 02:00:00 16.6 -- -- -- -- 0 -- -- 80
2018-05-08 01:00:00 17.5 -- -- -- -- 0 -- -- 76
2018-05-08 00:00:00 18.6 -- -- -- -- 0 -- -- 73
2018-05-07 23:00:00 19.7 -- -- -- -- 0 -- -- 69
2018-05-07 22:00:00 21.1 -- -- -- -- 0 -- -- 65
2018-05-07 21:00:00 23 -- -- -- -- 0 -- -- 60
2018-05-07 20:00:00 26.1 -- -- -- -- 0 -- -- 48
2018-05-07 19:00:00 27.3 -- -- -- -- 0 -- -- 36
2018-05-07 18:00:00 27.9 -- -- -- -- 0 -- -- 35
2018-05-07 17:00:00 28.4 -- -- -- -- 0 -- -- 34
2018-05-07 16:00:00 27.6 -- -- -- -- 0 -- -- 36
2018-05-07 15:00:00 27.2 -- -- -- -- 0 -- -- 36
2018-05-07 14:00:00 26.1 -- -- -- -- 0 -- -- 42
2018-05-07 13:00:00 24.4 -- -- -- -- 0 -- -- 48
2018-05-07 12:00:00 22.5 -- -- -- -- 0 -- -- 55
2018-05-07 11:00:00 19.5 -- -- -- -- 0 -- -- 78
2018-05-07 10:00:00 15.5 -- -- -- -- 0 -- -- 99
2018-05-07 09:00:00 13.8 -- -- -- -- 0 -- -- 99
2018-05-07 08:00:00 13.1 -- -- -- -- 0 -- -- 98
2018-05-07 07:00:00 13.2 -- -- -- -- 0 -- -- 96
2018-05-07 06:00:00 13.5 -- -- -- -- 0 -- -- 96
2018-05-07 05:00:00 14 -- -- -- -- 0 -- -- 94
2018-05-07 04:00:00 14.9 -- -- -- -- 0 -- -- 93
2018-05-07 03:00:00 15.4 -- -- -- -- 0 -- -- 93
2018-05-07 02:00:00 16.3 -- -- -- -- 0 -- -- 89
2018-05-07 01:00:00 17.1 -- -- -- -- 0 -- -- 84
2018-05-07 00:00:00 17.5 -- -- -- -- 0 -- -- 86
2018-05-06 23:00:00 18.6 -- -- -- -- 0 -- -- 79
2018-05-06 22:00:00 19.3 -- -- -- -- 0 -- -- 77
2018-05-06 21:00:00 21.7 -- -- -- -- 0 -- -- 65
2018-05-06 20:00:00 23.2 -- -- -- -- 0 -- -- 60
2018-05-06 19:00:00 21.6 -- -- -- -- 0.4 -- -- 60
2018-05-06 18:00:00 22.1 -- -- -- -- 1.6 -- -- 68
2018-05-06 17:00:00 29.3 -- -- -- -- 0 -- -- 32
2018-05-06 16:00:00 28.3 -- -- -- -- 0 -- -- 33
2018-05-06 15:00:00 28 -- -- -- -- 0 -- -- 36
2018-05-06 14:00:00 27.5 -- -- -- -- 0 -- -- 37
2018-05-06 13:00:00 26 -- -- -- -- 0 -- -- 40
2018-05-06 12:00:00 23.6 -- -- -- -- 0 -- -- 52
2018-05-06 11:00:00 19.8 -- -- -- -- 0 -- -- 63
2018-05-06 10:00:00 15.3 -- -- -- -- 0 -- -- 77
2018-05-06 09:00:00 11.9 -- -- -- -- 0 -- -- 90
2018-05-06 08:00:00 11.2 -- -- -- -- 0 -- -- 91
2018-05-06 07:00:00 11.4 -- -- -- -- 0 -- -- 89
2018-05-06 06:00:00 12.1 -- -- -- -- 0 -- -- 86
2018-05-06 05:00:00 12.7 -- -- -- -- 0 -- -- 79
2018-05-06 04:00:00 13.7 -- -- -- -- 0 -- -- 71
2018-05-06 03:00:00 14.6 -- -- -- -- 0 -- -- 70
2018-05-06 02:00:00 15.5 -- -- -- -- 0 -- -- 67
2018-05-06 01:00:00 16.9 -- -- -- -- 0 -- -- 66
2018-05-06 00:00:00 18.2 -- -- -- -- 0 -- -- 63
2018-05-05 23:00:00 20 -- -- -- -- 0 -- -- 59
2018-05-05 22:00:00 21.9 -- -- -- -- 0 -- -- 53
2018-05-05 21:00:00 24.9 -- -- -- -- 0 -- -- 36
2018-05-05 20:00:00 26.9 -- -- -- -- 0 -- -- 34
2018-05-05 19:00:00 28.4 -- -- -- -- 0 -- -- 33
2018-05-05 18:00:00 29 -- -- -- -- 0 -- -- 32
2018-05-05 17:00:00 28.6 -- -- -- -- 0 -- -- 36
2018-05-05 16:00:00 28.8 -- -- -- -- 0 -- -- 35
2018-05-05 15:00:00 27.6 -- -- -- -- 0 -- -- 37
2018-05-05 14:00:00 26.5 -- -- -- -- 0 -- -- 40
2018-05-05 13:00:00 24.5 -- -- -- -- 0 -- -- 46
2018-05-05 12:00:00 21.9 -- -- -- -- 0 -- -- 49
2018-05-05 11:00:00 18.1 -- -- -- -- 0 -- -- 73
2018-05-05 10:00:00 14.3 -- -- -- -- 0 -- -- 95
2018-05-05 09:00:00 13.5 -- -- -- -- 0 -- -- 97
2018-05-05 08:00:00 12 -- -- -- -- 0 -- -- 97
2018-05-05 07:00:00 11.7 -- -- -- -- 0 -- -- 94
2018-05-05 06:00:00 12.2 -- -- -- -- 0 -- -- 92
2018-05-05 05:00:00 13 -- -- -- -- 0 -- -- 92
2018-05-05 04:00:00 13.6 -- -- -- -- 0 -- -- 90
2018-05-05 03:00:00 14.3 -- -- -- -- 0 -- -- 88
2018-05-05 02:00:00 15.1 -- -- -- -- 0 -- -- 85
2018-05-05 01:00:00 15.7 -- -- -- -- 0 -- -- 77
2018-05-05 00:00:00 16.8 -- -- -- -- 0 -- -- 65
2018-05-04 23:00:00 18.8 -- -- -- -- 0 -- -- 53
2018-05-04 22:00:00 20.3 -- -- -- -- 0 -- -- 51
2018-05-04 21:00:00 23 -- -- -- -- 0 -- -- 41
2018-05-04 20:00:00 24.9 -- -- -- -- 0 -- -- 38
2018-05-04 19:00:00 24.9 -- -- -- -- 0 -- -- 36
2018-05-04 18:00:00 25.7 -- -- -- -- 0 -- -- 33
2018-05-04 17:00:00 26.2 -- -- -- -- 0 -- -- 32
2018-05-04 16:00:00 26.2 -- -- -- -- 0 -- -- 33
2018-05-04 15:00:00 26.4 -- -- -- -- 0 -- -- 34
2018-05-04 14:00:00 24.4 -- -- -- -- 0 -- -- 37
2018-05-04 13:00:00 21.1 -- -- -- -- 0 -- -- 49
2018-05-04 12:00:00 18.4 -- -- -- -- 0 -- -- 57
2018-05-04 11:00:00 16.2 -- -- -- -- 0 -- -- 65
2018-05-04 10:00:00 13.1 -- -- -- -- 0 -- -- 81
2018-05-04 09:00:00 10.1 -- -- -- -- 0 -- -- 94
2018-05-04 08:00:00 9.5 -- -- -- -- 0 -- -- 94
2018-05-04 07:00:00 9.9 -- -- -- -- 0 -- -- 93
2018-05-04 06:00:00 10.6 -- -- -- -- 0 -- -- 92
2018-05-04 05:00:00 11.2 -- -- -- -- 0 -- -- 89
2018-05-04 04:00:00 12 -- -- -- -- 0 -- -- 86
2018-05-04 03:00:00 12.7 -- -- -- -- 0 -- -- 84
2018-05-04 02:00:00 13.6 -- -- -- -- 0 -- -- 81
2018-05-04 01:00:00 14.7 -- -- -- -- 0 -- -- 78
2018-05-04 00:00:00 16.2 -- -- -- -- 0 -- -- 72
2018-05-03 23:00:00 17.6 -- -- -- -- 0 -- -- 68
2018-05-03 22:00:00 19.1 -- -- -- -- 0 -- -- 63
2018-05-03 21:00:00 21.2 -- -- -- -- 0 -- -- 50
2018-05-03 20:00:00 22.8 -- -- -- -- 0 -- -- 46
2018-05-03 19:00:00 22.8 -- -- -- -- 0 -- -- 46
2018-05-03 18:00:00 23.1 -- -- -- -- 0 -- -- 43
2018-05-03 17:00:00 24 -- -- -- -- 0 -- -- 43
2018-05-03 16:00:00 23.5 -- -- -- -- 0 -- -- 45
2018-05-03 15:00:00 22.9 -- -- -- -- 0 -- -- 47
2018-05-03 14:00:00 21.8 -- -- -- -- 0 -- -- 51
2018-05-03 13:00:00 20 -- -- -- -- 0 -- -- 55
2018-05-03 12:00:00 18 -- -- -- -- 0 -- -- 63
2018-05-03 11:00:00 15.5 -- -- -- -- 0 -- -- 73
2018-05-03 10:00:00 12.6 -- -- -- -- 0 -- -- 83
2018-05-03 09:00:00 9.1 -- -- -- -- 0 -- -- 98
2018-05-03 08:00:00 8.7 -- -- -- -- 0 -- -- 96
2018-05-03 07:00:00 8.6 -- -- -- -- 0 -- -- 94
2018-05-03 06:00:00 9.2 -- -- -- -- 0 -- -- 93
2018-05-03 05:00:00 9.7 -- -- -- -- 0 -- -- 90
2018-05-03 04:00:00 10.1 -- -- -- -- 0 -- -- 89
2018-05-03 03:00:00 11 -- -- -- -- 0 -- -- 86
2018-05-03 02:00:00 12.1 -- -- -- -- 0 -- -- 79
2018-05-03 01:00:00 12.2 -- -- -- -- 0 -- -- 80
2018-05-03 00:00:00 13.1 -- -- -- -- 0 -- -- 75
2018-05-02 23:00:00 14.6 -- -- -- -- 0 -- -- 66
2018-05-02 22:00:00 15.6 -- -- -- -- 0 -- -- 62
2018-05-02 21:00:00 16.2 -- -- -- -- 0 -- -- 59
2018-05-02 20:00:00 17.2 -- -- -- -- 0 -- -- 56
2018-05-02 19:00:00 18.6 -- -- -- -- 0 -- -- 52
2018-05-02 18:00:00 20.8 -- -- -- -- 0 -- -- 40
2018-05-02 17:00:00 20.5 -- -- -- -- 0 -- -- 38
2018-05-02 16:00:00 20.1 -- -- -- -- 0 -- -- 39
2018-05-02 15:00:00 20.6 -- -- -- -- 0 -- -- 41
2018-05-02 14:00:00 18.9 -- -- -- -- 0 -- -- 43
2018-05-02 13:00:00 17.6 -- -- -- -- 0 -- -- 48
2018-05-02 12:00:00 15.9 -- -- -- -- 0 -- -- 59
2018-05-02 11:00:00 13 -- -- -- -- 0 -- -- 70
2018-05-02 10:00:00 10.2 -- -- -- -- 0 -- -- 85
2018-05-02 09:00:00 7.2 -- -- -- -- 0 -- -- 97
2018-05-02 08:00:00 6.7 -- -- -- -- 0 -- -- 97
2018-05-02 07:00:00 6.6 -- -- -- -- 0 -- -- 96
2018-05-02 06:00:00 7.1 -- -- -- -- 0 -- -- 95
2018-05-02 05:00:00 7.5 -- -- -- -- 0 -- -- 93
2018-05-02 04:00:00 8 -- -- -- -- 0 -- -- 92
2018-05-02 03:00:00 8.7 -- -- -- -- 0 -- -- 87
2018-05-02 02:00:00 9.5 -- -- -- -- 0 -- -- 83
2018-05-02 01:00:00 10.4 -- -- -- -- 0 -- -- 79
2018-05-02 00:00:00 11.5 -- -- -- -- 0 -- -- 73
2018-05-01 23:00:00 12.7 -- -- -- -- 0 -- -- 69
2018-05-01 22:00:00 13.9 -- -- -- -- 0 -- -- 63
2018-05-01 21:00:00 15.4 -- -- -- -- 0 -- -- 58
2018-05-01 20:00:00 16.7 -- -- -- -- 0 -- -- 52
2018-05-01 19:00:00 16.6 -- -- -- -- 0 -- -- 52
2018-05-01 18:00:00 17.5 -- -- -- -- 0 -- -- 49
2018-05-01 17:00:00 14.2 -- -- -- -- 0 -- -- 67
2018-05-01 16:00:00 13.2 -- -- -- -- 0 -- -- 69
2018-05-01 15:00:00 15.2 -- -- -- -- 0 -- -- 67
2018-05-01 14:00:00 18.4 -- -- -- -- 0 -- -- 53
2018-05-01 13:00:00 16 -- -- -- -- 0 -- -- 64
2018-05-01 12:00:00 12.8 -- -- -- -- 0 -- -- 74
2018-05-01 11:00:00 12.5 -- -- -- -- 0 -- -- 74
2018-05-01 10:00:00 11 -- -- -- -- 0 -- -- 87
2018-05-01 09:00:00 8.3 -- -- -- -- 0 -- -- 97
2018-05-01 08:00:00 7.3 -- -- -- -- 0 -- -- 98
2018-05-01 07:00:00 7 -- -- -- -- 0 -- -- 96
2018-05-01 06:00:00 7.5 -- -- -- -- 0 -- -- 95
2018-05-01 05:00:00 7.9 -- -- -- -- 0 -- -- 94
2018-05-01 04:00:00 8.5 -- -- -- -- 0 -- -- 91
2018-05-01 03:00:00 9.1 -- -- -- -- 0 -- -- 89
2018-05-01 02:00:00 10 -- -- -- -- 0 -- -- 85
2018-05-01 01:00:00 10.8 -- -- -- -- 0 -- -- 81
2018-05-01 00:00:00 11.7 -- -- -- -- 0 -- -- 77
2018-04-30 23:00:00 12.7 -- -- -- -- 0 -- -- 72
2018-04-30 22:00:00 14.1 -- -- -- -- 0 -- -- 62
2018-04-30 21:00:00 16.2 -- -- -- -- 0 -- -- 52
2018-04-30 20:00:00 17.9 -- -- -- -- 0 -- -- 45
2018-04-30 19:00:00 19 -- -- -- -- 0 -- -- 41
2018-04-30 18:00:00 19.6 -- -- -- -- 0 -- -- 42
2018-04-30 17:00:00 18.3 -- -- -- -- 0 -- -- 44
2018-04-30 16:00:00 19.9 -- -- -- -- 0 -- -- 46
2018-04-30 15:00:00 17.1 -- -- -- -- 0 -- -- 50
2018-04-30 14:00:00 16.4 -- -- -- -- 0 -- -- 55
2018-04-30 13:00:00 15.1 -- -- -- -- 0 -- -- 68
2018-04-30 12:00:00 13.3 -- -- -- -- 0 -- -- 68
2018-04-30 11:00:00 11.5 -- -- -- -- 0 -- -- 82
2018-04-30 10:00:00 9.2 -- -- -- -- 0 -- -- 96
2018-04-30 09:00:00 6.8 -- -- -- -- 0 -- -- 99
2018-04-30 08:00:00 5.7 -- -- -- -- 0 -- -- 98
2018-04-30 07:00:00 5.9 -- -- -- -- 0 -- -- 96
2018-04-30 06:00:00 6.2 -- -- -- -- 0 -- -- 95
2018-04-30 05:00:00 6.5 -- -- -- -- 0 -- -- 94
2018-04-30 04:00:00 7.1 -- -- -- -- 0 -- -- 93
2018-04-30 03:00:00 7.6 -- -- -- -- 0 -- -- 93
2018-04-30 02:00:00 8.4 -- -- -- -- 0 -- -- 89
2018-04-30 01:00:00 9.3 -- -- -- -- 0 -- -- 86
2018-04-30 00:00:00 10.2 -- -- -- -- 0 -- -- 80
2018-04-29 23:00:00 11.5 -- -- -- -- 0 -- -- 71
2018-04-29 22:00:00 12.8 -- -- -- -- 0 -- -- 64
2018-04-29 21:00:00 14.7 -- -- -- -- 0 -- -- 57
2018-04-29 20:00:00 16.9 -- -- -- -- 0 -- -- 48
2018-04-29 19:00:00 18.5 -- -- -- -- 0 -- -- 43
2018-04-29 18:00:00 18.2 -- -- -- -- 0 -- -- 47
2018-04-29 17:00:00 18.5 -- -- -- -- 0.2 -- -- 43
2018-04-29 16:00:00 18.7 -- -- -- -- 0 -- -- 49
2018-04-29 15:00:00 17.4 -- -- -- -- 0 -- -- 54
2018-04-29 14:00:00 16.3 -- -- -- -- 0 -- -- 65
2018-04-29 13:00:00 15.7 -- -- -- -- 0.2 -- -- 62
2018-04-29 12:00:00 15.9 -- -- -- -- 0 -- -- 61
2018-04-29 11:00:00 13.5 -- -- -- -- 0 -- -- 70
2018-04-29 10:00:00 11.4 -- -- -- -- 0 -- -- 82
2018-04-29 09:00:00 8.7 -- -- -- -- 0 -- -- 94
2018-04-29 08:00:00 8 -- -- -- -- 0 -- -- 95
2018-04-29 07:00:00 7.8 -- -- -- -- 0 -- -- 94
2018-04-29 06:00:00 8 -- -- -- -- 0 -- -- 95
2018-04-29 05:00:00 8.1 -- -- -- -- 0 -- -- 96
2018-04-29 04:00:00 8.1 -- -- -- -- 0 -- -- 93
2018-04-29 03:00:00 8.6 -- -- -- -- 0 -- -- 92
2018-04-29 02:00:00 8.9 -- -- -- -- 0 -- -- 91
2018-04-29 01:00:00 9.9 -- -- -- -- 0 -- -- 89
2018-04-29 00:00:00 10 -- -- -- -- 0 -- -- 88
2018-04-28 23:00:00 10.4 -- -- -- -- 0.2 -- -- 88
2018-04-28 22:00:00 11 -- -- -- -- 0 -- -- 88
2018-04-28 21:00:00 11.5 -- -- -- -- 0 -- -- 88
2018-04-28 20:00:00 13.3 -- -- -- -- 0.2 -- -- 75
2018-04-28 19:00:00 14 -- -- -- -- 0 -- -- 76
2018-04-28 18:00:00 16.4 -- -- -- -- 0 -- -- 75
2018-04-28 17:00:00 16.7 -- -- -- -- 0 -- -- 71
2018-04-28 16:00:00 16.5 -- -- -- -- 0 -- -- 73
2018-04-28 15:00:00 18.4 -- -- -- -- 0 -- -- 46
2018-04-28 14:00:00 18.3 -- -- -- -- 0 -- -- 44
2018-04-28 13:00:00 17.2 -- -- -- -- 0 -- -- 46
2018-04-28 12:00:00 16.4 -- -- -- -- 0 -- -- 48
2018-04-28 11:00:00 14.1 -- -- -- -- 0 -- -- 68
2018-04-28 10:00:00 11.6 -- -- -- -- 0 -- -- 82
2018-04-28 09:00:00 8.4 -- -- -- -- 0 -- -- 94
2018-04-28 08:00:00 8.3 -- -- -- -- 0 -- -- 93
2018-04-28 07:00:00 9 -- -- -- -- 0 -- -- 90
2018-04-28 06:00:00 9.4 -- -- -- -- 0 -- -- 89
2018-04-28 05:00:00 10.2 -- -- -- -- 0 -- -- 87
2018-04-28 04:00:00 10.9 -- -- -- -- 0 -- -- 89
2018-04-28 03:00:00 11.7 -- -- -- -- 0 -- -- 87
2018-04-28 02:00:00 12.6 -- -- -- -- 0 -- -- 85
2018-04-28 01:00:00 13.7 -- -- -- -- 0 -- -- 84
2018-04-28 00:00:00 14.9 -- -- -- -- 0 -- -- 84